Time;durP1;ratioP1;P1;durP2;ratioP2;P2;SDS_P1;SDS_P2;PMS_P1;PMS_P2;Temp;Humidity;BMP_temperature;BMP_pressure;BME280_temperature;BME280_humidity;BME280_pressure;Samples;Min_cycle;Max_cycle;Signal;HPM_P1;HPM_P2
2022/09/27 00:02:17;;;;;;;0.73;0.40;;;20.20;52.50;;;;;;20721198;28;20107;-72
2022/09/27 00:12:18;;;;;;;1.60;0.55;;;20.10;52.60;;;;;;20753804;28;20069;-72
2022/09/27 00:22:18;;;;;;;0.70;0.43;;;20.10;52.60;;;;;;20738965;28;20539;-72
2022/09/27 00:32:19;;;;;;;0.63;0.38;;;20.10;52.60;;;;;;20736123;28;20048;-71
2022/09/27 00:42:20;;;;;;;0.60;0.40;;;20.10;52.70;;;;;;20743387;28;20117;-79
2022/09/27 00:52:51;;;;;;;0.75;0.35;;;20.00;52.80;;;;;;20734019;28;20038;-74
2022/09/27 01:02:53;;;;;;;0.85;0.40;;;20.10;52.90;;;;;;20736231;28;20045;-73
2022/09/27 01:13:16;;;;;;;0.65;0.40;;;20.00;52.90;;;;;;20718456;28;20563;-71
2022/09/27 01:23:28;;;;;;;1.23;0.57;;;20.00;53.00;;;;;;20732373;28;20043;-71
2022/09/27 01:33:50;;;;;;;0.47;0.32;;;20.00;53.00;;;;;;20738533;28;20477;-71
2022/09/27 01:43:58;;;;;;;0.38;0.30;;;20.00;53.10;;;;;;21100152;22;20045;-71
2022/09/27 01:54:03;;;;;;;0.65;0.32;;;20.00;53.10;;;;;;20714785;28;20038;-71
2022/09/27 02:04:22;;;;;;;1.60;0.30;;;19.90;53.20;;;;;;20730730;28;20041;-72
2022/09/27 02:14:56;;;;;;;0.30;0.30;;;19.90;53.20;;;;;;20714176;28;20061;-73
2022/09/27 02:25:22;;;;;;;0.32;0.32;;;19.90;53.30;;;;;;20731653;28;20037;-73
2022/09/27 02:35:26;;;;;;;0.38;0.25;;;19.90;53.30;;;;;;20711340;28;20022;-73
2022/09/27 02:45:35;;;;;;;0.30;0.20;;;19.90;53.40;;;;;;20742095;28;20714;-72
2022/09/27 02:55:54;;;;;;;0.40;0.20;;;19.90;53.50;;;;;;20718554;28;20044;-72
2022/09/27 03:06:16;;;;;;;0.68;0.38;;;19.90;53.50;;;;;;20741493;28;20089;-73
2022/09/27 03:16:17;;;;;;;0.43;0.20;;;19.80;53.50;;;;;;20726954;28;20460;-74
2022/09/27 03:26:40;;;;;;;0.75;0.32;;;19.80;53.60;;;;;;20718055;28;20104;-72
2022/09/27 03:36:41;;;;;;;0.40;0.20;;;19.80;53.60;;;;;;20726556;28;20033;-72
2022/09/27 03:46:42;;;;;;;0.40;0.30;;;19.80;53.70;;;;;;20708605;28;20030;-72
2022/09/27 03:56:43;;;;;;;1.83;0.40;;;19.80;53.70;;;;;;20727606;28;20375;-72
2022/09/27 04:06:43;;;;;;;1.38;0.43;;;19.80;53.80;;;;;;20738987;28;20034;-71
2022/09/27 04:16:44;;;;;;;0.52;0.40;;;19.80;53.90;;;;;;20736828;28;20038;-72
2022/09/27 04:27:00;;;;;;;0.40;0.30;;;19.80;53.90;;;;;;20743111;28;20046;-73
2022/09/27 04:37:02;;;;;;;0.68;0.40;;;19.70;53.90;;;;;;20719612;28;20041;-72
2022/09/27 04:47:12;;;;;;;0.45;0.20;;;19.70;54.00;;;;;;20738394;28;20038;-75
2022/09/27 04:57:15;;;;;;;1.00;0.40;;;19.70;54.10;;;;;;20732490;28;20025;-72
2022/09/27 05:07:16;;;;;;;0.85;0.20;;;19.70;54.10;;;;;;20732671;28;20544;-74
2022/09/27 05:17:21;;;;;;;1.00;0.73;;;19.70;54.20;;;;;;20747870;28;20034;-73
2022/09/27 05:27:44;;;;;;;1.17;0.30;;;19.70;54.20;;;;;;20745369;28;20122;-73
2022/09/27 05:37:56;;;;;;;0.80;0.30;;;19.60;54.20;;;;;;20728682;28;20061;-74
2022/09/27 05:47:57;;;;;;;0.55;0.20;;;19.60;54.30;;;;;;20728594;28;20141;-73
2022/09/27 05:58:03;;;;;;;0.50;0.30;;;19.60;54.40;;;;;;20647926;28;20034;-74
2022/09/27 06:08:27;;;;;;;2.38;0.40;;;19.60;55.10;;;;;;20718173;28;20463;-73
2022/09/27 06:18:27;;;;;;;0.67;0.57;;;19.60;54.50;;;;;;20740809;28;20108;-74
2022/09/27 06:28:28;;;;;;;0.80;0.47;;;19.60;54.60;;;;;;20711528;28;20295;-75
2022/09/27 06:38:31;;;;;;;0.47;0.32;;;19.50;54.60;;;;;;20710460;28;20030;-78
2022/09/27 06:48:46;;;;;;;0.95;0.43;;;19.50;54.70;;;;;;20724866;28;20042;-75
2022/09/27 07:09:17;;;;;;;0.47;0.30;;;19.50;55.00;;;;;;20738976;28;20488;-76
2022/09/27 07:19:18;;;;;;;2.17;0.20;;;19.50;55.70;;;;;;20707485;28;20036;-77
2022/09/27 07:29:20;;;;;;;0.57;0.45;;;19.40;55.10;;;;;;20705902;28;20480;-77
2022/09/27 07:39:22;;;;;;;0.70;0.25;;;19.40;55.20;;;;;;20751962;28;20083;-77
2022/09/27 07:49:23;;;;;;;2.17;0.22;;;19.40;55.20;;;;;;20715590;28;20042;-77
2022/09/27 07:59:23;;;;;;;0.67;0.27;;;19.40;55.30;;;;;;20747485;28;20072;-77
2022/09/27 08:09:25;;;;;;;0.98;0.35;;;19.40;55.30;;;;;;20733235;28;20301;-77
2022/09/27 08:19:26;;;;;;;0.88;0.40;;;19.40;55.40;;;;;;20732714;28;20034;-74
2022/09/27 08:29:44;;;;;;;0.50;0.30;;;19.40;55.40;;;;;;20735642;28;20128;-78
2022/09/27 08:39:45;;;;;;;0.88;0.35;;;19.40;55.50;;;;;;20732083;28;20124;-78
2022/09/27 08:49:49;;;;;;;1.25;0.30;;;19.40;55.50;;;;;;20714622;28;20128;-78
2022/09/27 09:00:03;;;;;;;0.30;0.30;;;20.20;54.00;;;;;;20728463;28;20026;-78
2022/09/27 09:21:45;;;;;;;2.65;0.30;;;22.80;48.00;;;;;;20654678;28;20038;-78
2022/09/27 09:31:57;;;;;;;0.40;0.30;;;23.70;46.10;;;;;;20746641;28;20049;-77
2022/09/27 09:42:13;;;;;;;0.80;0.30;;;24.70;44.10;;;;;;20724863;28;20034;-78
2022/09/27 09:52:18;;;;;;;0.73;0.40;;;24.60;43.80;;;;;;20725154;28;20503;-78
2022/09/27 10:02:30;;;;;;;0.90;0.30;;;23.80;45.00;;;;;;20657445;28;20033;-77
2022/09/27 10:12:37;;;;;;;1.35;0.30;;;23.00;46.30;;;;;;20708024;28;20057;-80
2022/09/27 10:22:41;;;;;;;2.05;0.60;;;22.40;47.30;;;;;;20721851;28;20029;-79
2022/09/27 10:33:03;;;;;;;2.08;0.57;;;22.20;48.00;;;;;;20725441;28;20060;-78
2022/09/27 10:43:28;;;;;;;3.35;0.50;;;22.10;48.20;;;;;;20724503;28;20133;-76
2022/09/27 10:53:33;;;;;;;0.35;0.30;;;22.00;48.40;;;;;;20721928;28;20041;-76
2022/09/27 11:03:49;;;;;;;0.25;0.25;;;21.90;48.40;;;;;;20729218;28;20118;-76
2022/09/27 11:13:57;;;;;;;0.40;0.20;;;22.00;48.50;;;;;;20714735;28;20092;-78
2022/09/27 11:24:08;;;;;;;0.65;0.25;;;21.90;48.50;;;;;;20725339;28;20073;-78
2022/09/27 11:34:18;;;;;;;1.75;0.43;;;21.90;48.70;;;;;;20738163;28;20085;-75
2022/09/27 11:44:31;;;;;;;0.63;0.40;;;21.90;48.70;;;;;;20744113;28;20084;-77
2022/09/27 11:54:53;;;;;;;0.28;0.20;;;21.80;48.80;;;;;;20740542;28;20468;-76
2022/09/27 12:05:10;;;;;;;1.27;0.30;;;21.80;48.90;;;;;;20706128;28;20074;-70
2022/09/27 12:15:17;;;;;;;0.40;0.30;;;21.80;49.00;;;;;;20715541;28;20449;-71
2022/09/27 12:25:17;;;;;;;1.88;0.40;;;21.70;48.90;;;;;;20751367;28;20045;-72
2022/09/27 12:35:26;;;;;;;1.55;0.20;;;21.70;48.90;;;;;;20751766;28;20041;-73
2022/09/27 12:46:04;;;;;;;1.17;0.20;;;21.60;48.90;;;;;;20730120;28;20038;-74
2022/09/27 12:56:24;;;;;;;0.55;0.20;;;21.60;48.90;;;;;;20742544;28;20128;-75
2022/09/27 13:06:32;;;;;;;1.63;0.20;;;21.60;48.90;;;;;;20730378;28;20040;-72
2022/09/27 13:16:44;;;;;;;1.63;0.35;;;21.60;48.80;;;;;;20728020;28;20080;-72
2022/09/27 13:26:47;;;;;;;0.55;0.20;;;21.50;48.80;;;;;;20698291;28;20046;-73
2022/09/27 13:36:48;;;;;;;0.52;0.22;;;21.50;48.60;;;;;;20729457;28;20057;-74
2022/09/27 13:47:18;;;;;;;0.38;0.25;;;21.50;48.50;;;;;;20727593;28;20472;-75
2022/09/27 13:57:50;;;;;;;0.10;0.10;;;21.50;48.50;;;;;;20739926;28;20084;-74
2022/09/27 14:07:55;;;;;;;2.93;0.20;;;21.40;48.30;;;;;;20682437;28;20100;-74
2022/09/27 14:17:56;;;;;;;1.52;0.15;;;21.50;48.40;;;;;;20716078;28;20026;-73
2022/09/27 14:27:59;;;;;;;0.20;0.10;;;21.40;49.00;;;;;;20731047;28;20072;-75
2022/09/27 14:38:12;;;;;;;2.85;0.28;;;21.40;49.10;;;;;;20787299;28;20030;-74
2022/09/27 14:48:22;;;;;;;32.85;5.78;;;21.80;48.00;;;;;;20795541;28;20121;-74
2022/09/27 14:58:25;;;;;;;15.90;1.92;;;22.40;46.90;;;;;;20744207;28;20034;-72
2022/09/27 15:08:34;;;;;;;19.73;2.40;;;22.50;46.50;;;;;;20739822;28;20065;-72
2022/09/27 15:18:41;;;;;;;13.15;2.70;;;22.80;46.10;;;;;;20738741;28;20361;-74
2022/09/27 15:28:43;;;;;;;10.75;2.90;;;22.80;45.70;;;;;;20736556;28;20108;-74
2022/09/27 15:38:46;;;;;;;9.18;1.75;;;22.90;45.50;;;;;;20755644;28;20041;-75
2022/09/27 15:49:32;;;;;;;5.85;1.08;;;22.90;45.40;;;;;;20738255;28;20049;-74
2022/09/27 15:59:34;;;;;;;7.63;1.08;;;22.90;45.20;;;;;;20719412;28;20037;-74
2022/09/27 16:09:34;;;;;;;2.20;1.27;;;22.90;45.30;;;;;;20737500;28;20044;-75
2022/09/27 16:19:35;;;;;;;6.00;1.27;;;22.90;45.30;;;;;;20718446;28;20038;-75
2022/09/27 16:29:37;;;;;;;6.75;2.10;;;22.80;45.40;;;;;;20781253;28;20046;-76
2022/09/27 16:39:39;;;;;;;4.10;1.50;;;22.80;45.50;;;;;;20653543;28;20100;-75
2022/09/27 16:59:59;;;;;;;4.55;1.38;;;22.60;45.60;;;;;;20751090;28;20041;-73
2022/09/27 17:10:00;;;;;;;1.95;0.95;;;22.50;45.70;;;;;;20730815;28;20042;-74
2022/09/27 17:20:01;;;;;;;3.60;1.05;;;22.50;45.90;;;;;;20746834;28;20029;-75
2022/09/27 17:30:01;;;;;;;2.47;0.90;;;22.50;46.00;;;;;;20760123;28;20096;-77
2022/09/27 17:40:03;;;;;;;1.05;0.75;;;22.40;46.00;;;;;;20725186;28;20301;-77
2022/09/27 18:00:23;;;;;;;2.10;1.08;;;22.30;46.20;;;;;;20679460;28;20124;-74
2022/09/27 18:10:25;;;;;;;1.38;0.80;;;22.30;46.30;;;;;;20707340;28;20120;-73
2022/09/27 18:20:27;;;;;;;1.10;0.98;;;22.20;46.30;;;;;;20712926;28;20119;-75
2022/09/27 18:30:28;;;;;;;1.95;1.00;;;22.20;46.40;;;;;;20726481;28;20038;-75
2022/09/27 18:40:29;;;;;;;1.23;0.67;;;22.20;46.50;;;;;;20697212;28;20095;-74
2022/09/27 18:50:33;;;;;;;1.25;0.70;;;22.10;46.60;;;;;;20692286;28;20728;-75
2022/09/27 19:00:35;;;;;;;1.63;0.83;;;22.10;46.70;;;;;;20685521;28;20034;-73
2022/09/27 19:10:35;;;;;;;2.60;1.00;;;22.10;46.80;;;;;;20681129;28;20038;-75
2022/09/27 19:20:36;;;;;;;1.33;0.63;;;22.00;46.80;;;;;;20738430;28;20037;-74
2022/09/27 19:30:40;;;;;;;2.13;1.10;;;22.00;47.00;;;;;;20684671;28;20065;-74
2022/09/27 19:40:41;;;;;;;3.17;0.83;;;21.90;47.00;;;;;;20707620;28;20048;-74
2022/09/27 19:50:42;;;;;;;1.98;1.02;;;21.90;47.10;;;;;;20669608;28;20524;-73
2022/09/27 20:00:42;;;;;;;2.03;0.95;;;21.80;47.20;;;;;;20727095;28;20034;-75
2022/09/27 20:10:52;;;;;;;2.65;1.00;;;21.80;47.30;;;;;;20745346;28;20034;-74
2022/09/27 20:20:52;;;;;;;3.53;1.27;;;21.80;47.40;;;;;;20750809;28;20049;-74
2022/09/27 20:31:02;;;;;;;2.20;1.00;;;21.70;47.50;;;;;;20719393;28;20038;-77
2022/09/27 20:41:03;;;;;;;5.30;1.25;;;21.70;47.60;;;;;;20719714;28;20077;-75
2022/09/27 20:51:04;;;;;;;2.10;1.03;;;21.70;47.70;;;;;;20736880;28;20449;-75
2022/09/27 21:01:05;;;;;;;3.10;1.00;;;21.70;47.80;;;;;;20648181;28;20293;-75
2022/09/27 21:11:10;;;;;;;1.95;0.80;;;21.60;47.90;;;;;;20728636;28;20057;-75
2022/09/27 21:21:12;;;;;;;3.40;1.23;;;21.60;48.00;;;;;;20767501;28;20046;-76
2022/09/27 21:31:14;;;;;;;1.67;0.98;;;21.60;48.10;;;;;;20733273;28;20054;-76
2022/09/27 21:41:15;;;;;;;0.98;0.73;;;21.50;48.10;;;;;;20732039;28;20045;-76
2022/09/27 21:51:20;;;;;;;1.40;1.00;;;21.50;48.20;;;;;;20730747;28;20173;-76
2022/09/27 22:01:22;;;;;;;1.30;0.67;;;21.40;48.30;;;;;;20662703;28;20757;-75
2022/09/27 22:11:27;;;;;;;3.20;0.80;;;21.40;48.30;;;;;;20730878;28;20038;-74
2022/09/27 22:21:32;;;;;;;1.20;0.73;;;21.40;48.40;;;;;;20696513;28;20046;-76
2022/09/27 22:31:33;;;;;;;1.45;0.70;;;21.30;48.50;;;;;;20714012;28;20499;-74
2022/09/27 22:41:33;;;;;;;2.33;0.65;;;21.30;48.50;;;;;;20711706;28;20077;-74
2022/09/27 22:51:34;;;;;;;2.90;0.70;;;21.30;48.60;;;;;;20726883;28;20030;-74
2022/09/27 23:01:35;;;;;;;0.93;0.70;;;21.30;48.70;;;;;;20741928;28;20062;-74
2022/09/27 23:11:36;;;;;;;2.22;0.90;;;21.20;48.80;;;;;;20726536;28;20069;-74
2022/09/27 23:21:37;;;;;;;2.28;0.60;;;21.20;48.80;;;;;;20710629;28;20061;-74
2022/09/27 23:31:38;;;;;;;1.40;0.75;;;21.20;48.90;;;;;;20709903;28;20034;-74
2022/09/27 23:41:39;;;;;;;0.98;0.60;;;21.10;48.90;;;;;;20725354;28;20133;-75
2022/09/27 23:51:41;;;;;;;0.82;0.60;;;21.20;49.10;;;;;;20758127;28;20045;-74
